Nefterudovoz-29m — UIMI — position and weather

sailwx.info

Track history (hours):
 
Tides and Currents Weather Stations Pressure Air Temp Water Temp Dewpoint Dewpoint Depression Visibility Wind Speed Wind Dir Waves Ship Positions

Nefterudovoz-29m

Last reported at 2017-Jan-19 22:31 UTC. Time now 2017-Jan-23 06:19 UTC.
Position N 45°32' E 036°49'.

Length 119 m; draft 2.4 m.

Type: Cargo ship. MMSI: 273345300.

Date/timePositionNaut miles runAvg speedWind from/ knotsBaromVisibWave heightAir tempDewpointWater temp
2017-Jan-19 22:31N 45°32' E 036°49'6 6.4
2017-Jan-19 21:33N 45°26' E 036°44'6 6.2
2017-Jan-19 20:33N 45°21' E 036°39'7 6.5
2017-Jan-19 19:33N 45°19' E 036°31'6 5.7
2017-Jan-19 18:33N 45°13' E 036°29'1 1.3
2017-Jan-19 17:32N 45°12' E 036°30'0 0.0
2017-Jan-19 16:20N 45°12' E 036°30'0 0.0
2017-Jan-19 15:29N 45°12' E 036°30'0 0.0
2017-Jan-19 14:32N 45°12' E 036°30'0 0.0
2017-Jan-19 12:29N 45°12' E 036°30'0 0.0
2017-Jan-19 10:17N 45°12' E 036°30'0 0.0
2017-Jan-19 09:17N 45°12' E 036°30'0 0.0
2017-Jan-19 06:32N 45°12' E 036°30'0 0.0
2017-Jan-19 05:17N 45°12' E 036°30'0 0.0
2017-Jan-19 04:26N 45°12' E 036°30'0 0.0
2017-Jan-19 03:26N 45°12' E 036°30'0 0.0
2017-Jan-19 02:32N 45°12' E 036°30'0 0.0
2017-Jan-19 01:32N 45°12' E 036°30'0 0.0
2017-Jan-19 00:32N 45°12' E 036°30'0 0.0
2017-Jan-18 22:17N 45°12' E 036°30'0 0.0
2017-Jan-18 21:29N 45°12' E 036°30'0 0.0
2017-Jan-18 20:14N 45°12' E 036°30'0 0.0
2017-Jan-18 19:23N 45°12' E 036°30'0 0.0
2017-Jan-18 18:32N 45°12' E 036°30'0 0.0
2017-Jan-18 17:32N 45°12' E 036°30'0 0.0
2017-Jan-18 16:32N 45°12' E 036°30'0 0.0
2017-Jan-18 15:32N 45°12' E 036°30'0 0.0
2017-Jan-18 14:32N 45°12' E 036°30'0 0.0
2017-Jan-18 13:23N 45°12' E 036°30'0 0.0
2017-Jan-18 12:32N 45°12' E 036°30'0 0.0
2017-Jan-18 11:32N 45°12' E 036°30'0 0.0
2017-Jan-18 10:32N 45°12' E 036°30'0 0.0
2017-Jan-18 09:32N 45°12' E 036°30'0 0.0
2017-Jan-18 08:32N 45°12' E 036°30'0 0.0
2017-Jan-18 07:32N 45°12' E 036°30'0 0.0
2017-Jan-18 06:32N 45°12' E 036°30'0 0.0
2017-Jan-18 05:32N 45°12' E 036°30'0 0.0
2017-Jan-18 04:14N 45°12' E 036°30'0 0.0
2017-Jan-18 03:32N 45°12' E 036°30'0 0.0
2017-Jan-18 02:32N 45°12' E 036°30'0 0.0
2017-Jan-18 01:29N 45°12' E 036°30'0 0.0
2017-Jan-18 00:32N 45°12' E 036°30'0 0.0
2017-Jan-17 23:32N 45°12' E 036°30'0 0.0
2017-Jan-17 22:32N 45°12' E 036°30'0 0.0
2017-Jan-17 21:26N 45°12' E 036°30'0 0.0
2017-Jan-17 20:32N 45°12' E 036°30'0 0.0
2017-Jan-17 19:32N 45°12' E 036°30'0 0.0
2017-Jan-17 18:32N 45°12' E 036°30'0 0.0
2017-Jan-17 17:32N 45°12' E 036°30'0 0.0
2017-Jan-17 16:29N 45°12' E 036°30'0 0.0
2017-Jan-17 15:33N 45°12' E 036°30'0 0.0
2017-Jan-17 14:33N 45°12' E 036°30'0 0.0
2017-Jan-17 13:30N 45°12' E 036°30'0 0.0
2017-Jan-17 12:33N 45°12' E 036°30'0 0.0
2017-Jan-17 11:33N 45°12' E 036°30'0 0.0
2017-Jan-17 10:33N 45°12' E 036°30'0 0.0
2017-Jan-17 09:33N 45°12' E 036°30'0 0.0
2017-Jan-17 08:33N 45°12' E 036°30'0 0.0
2017-Jan-17 07:33N 45°12' E 036°30'0 0.0
2017-Jan-17 06:33N 45°12' E 036°30'0 0.0
2017-Jan-17 05:33N 45°12' E 036°30'0 0.0
2017-Jan-17 04:33N 45°12' E 036°30'0 0.1
2017-Jan-17 03:34N 45°12' E 036°30'6 5.3
2017-Jan-17 02:28N 45°06' E 036°30'  
2017-Jan-13 23:32N 45°08' E 036°29'6 6.4
2017-Jan-13 22:33N 45°15' E 036°28'6 5.9
2017-Jan-13 21:34N 45°19' E 036°33'7 6.7
2017-Jan-13 20:33N 45°24' E 036°40'5 5.4
2017-Jan-13 19:33N 45°29' E 036°42'1 0.6
2017-Jan-13 18:33N 45°29' E 036°43'5 5.4
2017-Jan-13 17:33N 45°34' E 036°47'  
Track history (hours):
 
Tides and Currents Weather Stations Pressure Air Temp Water Temp Dewpoint Dewpoint Depression Visibility Wind Speed Wind Dir Waves Ship Positions

Nefterudovoz-29m

Last reported at 2017-Jan-19 22:31 UTC. Time now 2017-Jan-23 06:19 UTC.
Position N 45°32' E 036°49'.

Length 119 m; draft 2.4 m.

Type: Cargo ship. MMSI: 273345300.

Date/timePositionNaut miles runAvg speedWind from/ knotsBaromVisibWave heightAir tempDewpointWater temp
2017-Jan-19 22:31N 45°32' E 036°49'6 6.4
2017-Jan-19 21:33N 45°26' E 036°44'6 6.2
2017-Jan-19 20:33N 45°21' E 036°39'7 6.5
2017-Jan-19 19:33N 45°19' E 036°31'6 5.7
2017-Jan-19 18:33N 45°13' E 036°29'1 1.3
2017-Jan-19 17:32N 45°12' E 036°30'0 0.0
2017-Jan-19 16:20N 45°12' E 036°30'0 0.0
2017-Jan-19 15:29N 45°12' E 036°30'0 0.0
2017-Jan-19 14:32N 45°12' E 036°30'0 0.0
2017-Jan-19 12:29N 45°12' E 036°30'0 0.0
2017-Jan-19 10:17N 45°12' E 036°30'0 0.0
2017-Jan-19 09:17N 45°12' E 036°30'0 0.0
2017-Jan-19 06:32N 45°12' E 036°30'0 0.0
2017-Jan-19 05:17N 45°12' E 036°30'0 0.0
2017-Jan-19 04:26N 45°12' E 036°30'0 0.0
2017-Jan-19 03:26N 45°12' E 036°30'0 0.0
2017-Jan-19 02:32N 45°12' E 036°30'0 0.0
2017-Jan-19 01:32N 45°12' E 036°30'0 0.0
2017-Jan-19 00:32N 45°12' E 036°30'0 0.0
2017-Jan-18 22:17N 45°12' E 036°30'0 0.0
2017-Jan-18 21:29N 45°12' E 036°30'0 0.0
2017-Jan-18 20:14N 45°12' E 036°30'0 0.0
2017-Jan-18 19:23N 45°12' E 036°30'0 0.0
2017-Jan-18 18:32N 45°12' E 036°30'0 0.0
2017-Jan-18 17:32N 45°12' E 036°30'0 0.0
2017-Jan-18 16:32N 45°12' E 036°30'0 0.0
2017-Jan-18 15:32N 45°12' E 036°30'0 0.0
2017-Jan-18 14:32N 45°12' E 036°30'0 0.0
2017-Jan-18 13:23N 45°12' E 036°30'0 0.0
2017-Jan-18 12:32N 45°12' E 036°30'0 0.0
2017-Jan-18 11:32N 45°12' E 036°30'0 0.0
2017-Jan-18 10:32N 45°12' E 036°30'0 0.0
2017-Jan-18 09:32N 45°12' E 036°30'0 0.0
2017-Jan-18 08:32N 45°12' E 036°30'0 0.0
2017-Jan-18 07:32N 45°12' E 036°30'0 0.0
2017-Jan-18 06:32N 45°12' E 036°30'0 0.0
2017-Jan-18 05:32N 45°12' E 036°30'0 0.0
2017-Jan-18 04:14N 45°12' E 036°30'0 0.0
2017-Jan-18 03:32N 45°12' E 036°30'0 0.0
2017-Jan-18 02:32N 45°12' E 036°30'0 0.0
2017-Jan-18 01:29N 45°12' E 036°30'0 0.0
2017-Jan-18 00:32N 45°12' E 036°30'0 0.0
2017-Jan-17 23:32N 45°12' E 036°30'0 0.0
2017-Jan-17 22:32N 45°12' E 036°30'0 0.0
2017-Jan-17 21:26N 45°12' E 036°30'0 0.0
2017-Jan-17 20:32N 45°12' E 036°30'0 0.0
2017-Jan-17 19:32N 45°12' E 036°30'0 0.0
2017-Jan-17 18:32N 45°12' E 036°30'0 0.0
2017-Jan-17 17:32N 45°12' E 036°30'0 0.0
2017-Jan-17 16:29N 45°12' E 036°30'0 0.0
2017-Jan-17 15:33N 45°12' E 036°30'0 0.0
2017-Jan-17 14:33N 45°12' E 036°30'0 0.0
2017-Jan-17 13:30N 45°12' E 036°30'0 0.0
2017-Jan-17 12:33N 45°12' E 036°30'0 0.0
2017-Jan-17 11:33N 45°12' E 036°30'0 0.0
2017-Jan-17 10:33N 45°12' E 036°30'0 0.0
2017-Jan-17 09:33N 45°12' E 036°30'0 0.0
2017-Jan-17 08:33N 45°12' E 036°30'0 0.0
2017-Jan-17 07:33N 45°12' E 036°30'0 0.0
2017-Jan-17 06:33N 45°12' E 036°30'0 0.0
2017-Jan-17 05:33N 45°12' E 036°30'0 0.0
2017-Jan-17 04:33N 45°12' E 036°30'0 0.1
2017-Jan-17 03:34N 45°12' E 036°30'6 5.3
2017-Jan-17 02:28N 45°06' E 036°30'  
2017-Jan-13 23:32N 45°08' E 036°29'6 6.4
2017-Jan-13 22:33N 45°15' E 036°28'6 5.9
2017-Jan-13 21:34N 45°19' E 036°33'7 6.7
2017-Jan-13 20:33N 45°24' E 036°40'5 5.4
2017-Jan-13 19:33N 45°29' E 036°42'1 0.6
2017-Jan-13 18:33N 45°29' E 036°43'5 5.4
2017-Jan-13 17:33N 45°34' E 036°47'  

Dump ship's entire track history